createdAt,value
2023-01-11T00:02:37.435Z,90.96
2023-01-11T00:05:41.759Z,90.61
2023-01-11T00:08:44.257Z,91.25
2023-01-11T00:11:47.161Z,91.15
2023-01-11T00:14:49.716Z,91.25
2023-01-11T00:17:52.572Z,91.12
2023-01-11T00:20:55.103Z,91.06
2023-01-11T00:23:57.947Z,91.01
2023-01-11T00:27:00.462Z,91.80
2023-01-11T00:30:03.399Z,91.22
2023-01-11T00:33:06.067Z,91.46
2023-01-11T00:36:09.618Z,92.02
2023-01-11T00:39:12.074Z,91.75
2023-01-11T00:42:33.844Z,91.64
2023-01-11T00:45:55.079Z,91.35
2023-01-11T00:48:58.009Z,91.52
2023-01-11T00:52:00.783Z,91.99
2023-01-11T00:55:03.936Z,91.72
2023-01-11T00:58:06.465Z,91.55
2023-01-11T01:01:09.325Z,92.33
2023-01-11T01:04:11.985Z,91.79
2023-01-11T01:07:14.800Z,91.94
2023-01-11T01:10:18.302Z,92.54
2023-01-11T01:13:39.467Z,92.00
2023-01-11T01:16:42.354Z,92.34
2023-01-11T01:19:45.301Z,92.15
2023-01-11T01:22:48.208Z,91.83
2023-01-11T01:25:50.986Z,90.82
2023-01-11T01:28:53.444Z,91.15
2023-01-11T01:31:56.245Z,91.41
2023-01-11T01:34:58.779Z,91.40
2023-01-11T01:38:01.583Z,91.28
2023-01-11T01:41:04.954Z,90.94
2023-01-11T01:44:45.479Z,91.60
2023-01-11T01:47:54.079Z,90.94
2023-01-11T01:51:00.314Z,90.95
2023-01-11T01:54:06.490Z,91.11
2023-01-11T01:57:12.989Z,91.24
2023-01-11T02:00:16.220Z,91.15
2023-01-11T02:03:21.533Z,91.42
2023-01-11T02:06:24.516Z,91.17
2023-01-11T02:09:35.309Z,91.47
2023-01-11T02:12:42.137Z,91.54
2023-01-11T02:15:44.617Z,91.40
2023-01-11T02:18:47.424Z,91.04
2023-01-11T02:22:00.499Z,91.19
2023-01-11T02:25:20.675Z,91.20
2023-01-11T02:28:43.295Z,91.23
2023-01-11T02:32:00.668Z,90.87
2023-01-11T02:35:25.041Z,90.97
2023-01-11T02:38:43.217Z,91.32
2023-01-11T02:42:09.321Z,91.13
2023-01-11T02:45:17.338Z,91.14
2023-01-11T02:48:25.719Z,91.08
2023-01-11T02:51:40.070Z,91.79
2023-01-11T02:54:43.795Z,91.53
2023-01-11T02:57:47.314Z,92.08
2023-01-11T03:00:50.653Z,91.83
2023-01-11T03:03:54.015Z,91.75
2023-01-11T03:07:24.112Z,91.90
2023-01-11T03:10:50.258Z,92.58
2023-01-11T03:14:21.005Z,92.69
2023-01-11T03:17:47.311Z,92.64
2023-01-11T03:20:59.397Z,92.19
2023-01-11T03:24:29.313Z,91.65
2023-01-11T03:27:38.152Z,91.50
2023-01-11T03:30:47.654Z,91.61
2023-01-11T03:34:11.312Z,91.84
2023-01-11T03:37:20.215Z,92.85
2023-01-11T03:40:30.622Z,93.08
2023-01-11T03:43:36.638Z,92.66
2023-01-11T03:46:48.756Z,92.63
2023-01-11T03:49:54.381Z,92.93
2023-01-11T03:53:01.885Z,93.44
2023-01-11T03:56:07.572Z,94.02
2023-01-11T03:59:10.443Z,94.36
2023-01-11T04:02:18.805Z,94.17
2023-01-11T04:05:21.756Z,94.43
2023-01-11T04:08:24.411Z,95.30
2023-01-11T04:11:27.290Z,95.41
2023-01-11T04:14:29.825Z,94.34
2023-01-11T04:17:32.566Z,94.68
2023-01-11T04:20:37.086Z,94.25
2023-01-11T04:23:40.060Z,94.45
2023-01-11T04:26:42.521Z,95.39
2023-01-11T04:29:45.478Z,95.57
2023-01-11T04:32:48.051Z,95.52
2023-01-11T04:35:51.026Z,96.46
2023-01-11T04:38:53.704Z,96.10
2023-01-11T04:42:15.150Z,95.59
2023-01-11T04:45:17.626Z,95.02
2023-01-11T04:48:20.664Z,94.36
2023-01-11T04:51:23.324Z,94.15
2023-01-11T04:54:26.233Z,93.98
2023-01-11T04:57:28.751Z,94.00
2023-01-11T05:00:31.653Z,95.13
2023-01-11T05:03:34.159Z,94.94
2023-01-11T05:06:36.970Z,95.52
2023-01-11T05:09:40.848Z,95.97
2023-01-11T05:12:43.647Z,96.10
2023-01-11T05:15:46.858Z,95.27
2023-01-11T05:18:53.644Z,94.59
2023-01-11T05:21:56.127Z,93.85
2023-01-11T05:24:58.894Z,93.43
2023-01-11T05:28:01.452Z,94.18
2023-01-11T05:31:04.515Z,94.08
2023-01-11T05:34:08.148Z,94.62
2023-01-11T05:37:10.983Z,95.34
2023-01-11T05:40:13.729Z,95.29
2023-01-11T05:43:16.495Z,93.50
2023-01-11T05:46:19.169Z,93.29
2023-01-11T05:49:22.137Z,93.65
2023-01-11T05:52:24.665Z,93.71
2023-01-11T05:55:27.429Z,94.02
2023-01-11T05:58:29.899Z,93.24
2023-01-11T06:01:32.799Z,93.42
2023-01-11T06:04:35.653Z,94.24
2023-01-11T06:07:38.231Z,94.88
2023-01-11T06:10:41.353Z,94.89
2023-01-11T06:13:43.942Z,95.23
2023-01-11T06:16:46.905Z,95.49
2023-01-11T06:19:49.502Z,96.44
2023-01-11T06:22:52.312Z,96.24
2023-01-11T06:25:55.196Z,96.51
2023-01-11T06:28:58.245Z,96.42
2023-01-11T06:32:01.164Z,96.47
2023-01-11T06:35:04.229Z,96.61
2023-01-11T06:38:08.346Z,96.30
2023-01-11T06:41:11.900Z,95.52
2023-01-11T06:44:14.390Z,95.40
2023-01-11T06:47:17.184Z,95.17
2023-01-11T06:50:19.949Z,95.66
2023-01-11T06:53:23.671Z,96.44
2023-01-11T06:56:26.177Z,96.73
2023-01-11T06:59:28.968Z,96.50
2023-01-11T07:02:32.129Z,96.46
2023-01-11T07:05:36.263Z,96.06
2023-01-11T07:08:38.852Z,95.75
2023-01-11T07:11:42.090Z,94.67
2023-01-11T07:14:44.553Z,94.41
2023-01-11T07:17:49.399Z,94.59
2023-01-11T07:20:52.175Z,94.46
2023-01-11T07:23:55.524Z,94.53
2023-01-11T07:27:00.842Z,94.95
2023-01-11T07:30:04.053Z,95.02
2023-01-11T07:33:07.598Z,95.19
2023-01-11T07:36:10.385Z,95.10
2023-01-11T07:39:12.947Z,94.98
2023-01-11T07:42:34.446Z,94.59
2023-01-11T07:45:47.217Z,94.41
2023-01-11T07:48:50.173Z,95.28
2023-01-11T07:51:52.968Z,96.39
2023-01-11T07:54:55.827Z,97.12
2023-01-11T07:57:58.466Z,97.31
2023-01-11T08:01:01.529Z,96.95
2023-01-11T08:04:04.766Z,96.60
2023-01-11T08:07:07.248Z,96.60
2023-01-11T08:10:10.900Z,96.89
2023-01-11T08:13:32.670Z,95.72
2023-01-11T08:16:35.485Z,96.28
